sensor_id;sensor_type;location;lat;lon;timestamp;pressure;altitude;pressure_sealevel;temperature;humidity
12146;BME280;6136;47.032;15.398;2022-11-20T00:01:32;97112.81;;;1.71;nan
12146;BME280;6136;47.032;15.398;2022-11-20T00:04:01;97116.13;;;1.76;nan
12146;BME280;6136;47.032;15.398;2022-11-20T00:06:29;97119.53;;;1.78;nan
12146;BME280;6136;47.032;15.398;2022-11-20T00:08:59;97121.09;;;1.84;nan
12146;BME280;6136;47.032;15.398;2022-11-20T00:11:31;97121.13;;;1.82;nan
12146;BME280;6136;47.032;15.398;2022-11-20T00:14:00;97122.84;;;1.83;nan
12146;BME280;6136;47.032;15.398;2022-11-20T00:16:31;97115.78;;;1.85;nan
12146;BME280;6136;47.032;15.398;2022-11-20T00:19:00;97120.19;;;1.85;nan
12146;BME280;6136;47.032;15.398;2022-11-20T00:21:29;97130.41;;;1.91;nan
12146;BME280;6136;47.032;15.398;2022-11-20T00:23:58;97144.22;;;1.94;nan
12146;BME280;6136;47.032;15.398;2022-11-20T00:26:29;97127.84;;;1.89;nan
12146;BME280;6136;47.032;15.398;2022-11-20T00:28:59;97141.28;;;2.04;nan
12146;BME280;6136;47.032;15.398;2022-11-20T00:31:28;97145.13;;;1.93;nan
12146;BME280;6136;47.032;15.398;2022-11-20T00:33:57;97163.31;;;1.97;nan
12146;BME280;6136;47.032;15.398;2022-11-20T00:36:27;97162.50;;;1.94;nan
12146;BME280;6136;47.032;15.398;2022-11-20T00:38:57;97152.06;;;1.94;nan
12146;BME280;6136;47.032;15.398;2022-11-20T00:41:26;97145.88;;;1.97;nan
12146;BME280;6136;47.032;15.398;2022-11-20T00:43:56;97144.69;;;2.06;nan
12146;BME280;6136;47.032;15.398;2022-11-20T00:46:26;97148.53;;;1.95;nan
12146;BME280;6136;47.032;15.398;2022-11-20T00:48:54;97129.66;;;1.87;nan
12146;BME280;6136;47.032;15.398;2022-11-20T00:51:24;97125.34;;;1.86;nan
12146;BME280;6136;47.032;15.398;2022-11-20T00:53:55;97146.72;;;1.98;nan
12146;BME280;6136;47.032;15.398;2022-11-20T00:56:23;97150.94;;;2.02;nan
12146;BME280;6136;47.032;15.398;2022-11-20T00:58:51;97161.34;;;2.03;nan
12146;BME280;6136;47.032;15.398;2022-11-20T01:01:22;97168.44;;;2.00;nan
12146;BME280;6136;47.032;15.398;2022-11-20T01:03:54;97168.50;;;1.98;nan
12146;BME280;6136;47.032;15.398;2022-11-20T01:06:23;97172.84;;;1.98;nan
12146;BME280;6136;47.032;15.398;2022-11-20T01:08:54;97165.81;;;2.00;nan
12146;BME280;6136;47.032;15.398;2022-11-20T01:11:24;97152.19;;;1.91;nan
12146;BME280;6136;47.032;15.398;2022-11-20T01:13:54;97162.19;;;2.04;nan
12146;BME280;6136;47.032;15.398;2022-11-20T01:16:25;97169.00;;;2.08;nan
12146;BME280;6136;47.032;15.398;2022-11-20T01:18:56;97154.41;;;2.02;nan
12146;BME280;6136;47.032;15.398;2022-11-20T01:21:26;97169.84;;;2.08;nan
12146;BME280;6136;47.032;15.398;2022-11-20T01:23:55;97166.34;;;2.09;nan
12146;BME280;6136;47.032;15.398;2022-11-20T01:26:25;97164.81;;;2.04;nan
12146;BME280;6136;47.032;15.398;2022-11-20T01:28:54;97154.31;;;2.05;nan
12146;BME280;6136;47.032;15.398;2022-11-20T01:31:26;97163.03;;;2.04;nan
12146;BME280;6136;47.032;15.398;2022-11-20T01:33:56;97173.53;;;2.03;nan
12146;BME280;6136;47.032;15.398;2022-11-20T01:36:26;97170.13;;;2.01;nan
12146;BME280;6136;47.032;15.398;2022-11-20T01:38:56;97167.47;;;2.02;nan
12146;BME280;6136;47.032;15.398;2022-11-20T01:41:27;97167.41;;;2.04;nan
12146;BME280;6136;47.032;15.398;2022-11-20T01:44:15;97169.16;;;2.03;nan
12146;BME280;6136;47.032;15.398;2022-11-20T01:46:52;97156.63;;;1.88;nan
12146;BME280;6136;47.032;15.398;2022-11-20T01:49:27;97164.03;;;2.00;nan
12146;BME280;6136;47.032;15.398;2022-11-20T01:52:01;97158.97;;;1.95;nan
12146;BME280;6136;47.032;15.398;2022-11-20T01:54:35;97164.84;;;2.02;nan
12146;BME280;6136;47.032;15.398;2022-11-20T01:57:06;97146.09;;;1.91;nan
12146;BME280;6136;47.032;15.398;2022-11-20T01:59:42;97158.00;;;2.00;nan
12146;BME280;6136;47.032;15.398;2022-11-20T02:02:14;97149.56;;;1.91;nan
12146;BME280;6136;47.032;15.398;2022-11-20T02:04:43;97144.34;;;1.91;nan
12146;BME280;6136;47.032;15.398;2022-11-20T02:07:12;97157.28;;;1.94;nan
12146;BME280;6136;47.032;15.398;2022-11-20T02:09:41;97143.44;;;1.92;nan
12146;BME280;6136;47.032;15.398;2022-11-20T02:12:10;97157.28;;;1.94;nan
12146;BME280;6136;47.032;15.398;2022-11-20T02:14:58;97146.03;;;1.92;nan
12146;BME280;6136;47.032;15.398;2022-11-20T02:17:27;97148.66;;;1.92;nan
12146;BME280;6136;47.032;15.398;2022-11-20T02:19:55;97156.38;;;1.95;nan
12146;BME280;6136;47.032;15.398;2022-11-20T02:22:28;97145.03;;;1.97;nan
12146;BME280;6136;47.032;15.398;2022-11-20T02:25:01;97147.72;;;1.93;nan
12146;BME280;6136;47.032;15.398;2022-11-20T02:27:30;97151.94;;;1.98;nan
12146;BME280;6136;47.032;15.398;2022-11-20T02:30:01;97149.28;;;1.99;nan
12146;BME280;6136;47.032;15.398;2022-11-20T02:32:32;97144.16;;;1.96;nan
12146;BME280;6136;47.032;15.398;2022-11-20T02:35:07;97145.03;;;1.97;nan
12146;BME280;6136;47.032;15.398;2022-11-20T02:37:37;97157.91;;;2.01;nan
12146;BME280;6136;47.032;15.398;2022-11-20T02:40:10;97136.50;;;1.91;nan
12146;BME280;6136;47.032;15.398;2022-11-20T02:42:38;97145.69;;;2.02;nan
12146;BME280;6136;47.032;15.398;2022-11-20T02:45:07;97144.78;;;2.03;nan
12146;BME280;6136;47.032;15.398;2022-11-20T02:47:36;97146.50;;;2.04;nan
12146;BME280;6136;47.032;15.398;2022-11-20T02:50:06;97135.41;;;1.97;nan
12146;BME280;6136;47.032;15.398;2022-11-20T02:52:34;97131.16;;;1.94;nan
12146;BME280;6136;47.032;15.398;2022-11-20T02:55:03;97128.25;;;2.02;nan
12146;BME280;6136;47.032;15.398;2022-11-20T02:57:33;97119.56;;;2.02;nan
12146;BME280;6136;47.032;15.398;2022-11-20T03:00:01;97108.34;;;2.00;nan
12146;BME280;6136;47.032;15.398;2022-11-20T03:02:30;97110.97;;;2.00;nan
12146;BME280;6136;47.032;15.398;2022-11-20T03:04:58;97117.19;;;1.95;nan
12146;BME280;6136;47.032;15.398;2022-11-20T03:07:26;97106.72;;;1.95;nan
12146;BME280;6136;47.032;15.398;2022-11-20T03:09:54;97110.38;;;1.91;nan
12146;BME280;6136;47.032;15.398;2022-11-20T03:12:23;97117.41;;;1.89;nan
12146;BME280;6136;47.032;15.398;2022-11-20T03:14:52;97122.41;;;1.95;nan
12146;BME280;6136;47.032;15.398;2022-11-20T03:17:20;97117.41;;;1.89;nan
12146;BME280;6136;47.032;15.398;2022-11-20T03:19:48;97111.31;;;1.89;nan
12146;BME280;6136;47.032;15.398;2022-11-20T03:22:17;97110.25;;;1.94;nan
12146;BME280;6136;47.032;15.398;2022-11-20T03:24:45;97115.41;;;1.96;nan
12146;BME280;6136;47.032;15.398;2022-11-20T03:27:13;97109.50;;;1.91;nan
12146;BME280;6136;47.032;15.398;2022-11-20T03:29:41;97122.31;;;1.99;nan
12146;BME280;6136;47.032;15.398;2022-11-20T03:32:11;97107.00;;;1.88;nan
12146;BME280;6136;47.032;15.398;2022-11-20T03:34:39;97129.13;;;2.03;nan
12146;BME280;6136;47.032;15.398;2022-11-20T03:37:07;97113.44;;;2.03;nan
12146;BME280;6136;47.032;15.398;2022-11-20T03:39:35;97106.69;;;1.97;nan
12146;BME280;6136;47.032;15.398;2022-11-20T03:42:04;97117.13;;;1.97;nan
12146;BME280;6136;47.032;15.398;2022-11-20T03:44:52;97126.50;;;2.03;nan
12146;BME280;6136;47.032;15.398;2022-11-20T03:47:22;97114.25;;;2.05;nan
12146;BME280;6136;47.032;15.398;2022-11-20T03:49:50;97117.84;;;2.01;nan
12146;BME280;6136;47.032;15.398;2022-11-20T03:52:18;97098.31;;;1.87;nan
12146;BME280;6136;47.032;15.398;2022-11-20T03:54:46;97105.81;;;1.97;nan
12146;BME280;6136;47.032;15.398;2022-11-20T03:57:15;97109.13;;;2.02;nan
12146;BME280;6136;47.032;15.398;2022-11-20T03:59:43;97101.28;;;2.02;nan
12146;BME280;6136;47.032;15.398;2022-11-20T04:02:11;97106.50;;;2.02;nan
12146;BME280;6136;47.032;15.398;2022-11-20T04:04:41;97085.97;;;1.92;nan
12146;BME280;6136;47.032;15.398;2022-11-20T04:07:09;97080.72;;;1.92;nan
12146;BME280;6136;47.032;15.398;2022-11-20T04:09:37;97100.56;;;1.98;nan
12146;BME280;6136;47.032;15.398;2022-11-20T04:12:05;97092.94;;;1.92;nan
12146;BME280;6136;47.032;15.398;2022-11-20T04:14:34;97094.34;;;2.01;nan
12146;BME280;6136;47.032;15.398;2022-11-20T04:17:03;97096.91;;;2.02;nan
12146;BME280;6136;47.032;15.398;2022-11-20T04:19:31;97090.97;;;1.99;nan
12146;BME280;6136;47.032;15.398;2022-11-20T04:22:01;97096.81;;;2.05;nan
12146;BME280;6136;47.032;15.398;2022-11-20T04:24:29;97070.38;;;1.89;nan
12146;BME280;6136;47.032;15.398;2022-11-20T04:26:57;97059.94;;;1.89;nan
12146;BME280;6136;47.032;15.398;2022-11-20T04:29:25;97072.75;;;1.95;nan
12146;BME280;6136;47.032;15.398;2022-11-20T04:31:53;97072.09;;;1.90;nan
12146;BME280;6136;47.032;15.398;2022-11-20T04:34:21;97089.13;;;2.01;nan
12146;BME280;6136;47.032;15.398;2022-11-20T04:36:50;97081.22;;;2.02;nan
12146;BME280;6136;47.032;15.398;2022-11-20T04:39:19;97073.28;;;2.05;nan
12146;BME280;6136;47.032;15.398;2022-11-20T04:41:48;97063.22;;;1.94;nan
12146;BME280;6136;47.032;15.398;2022-11-20T04:44:36;97070.91;;;1.99;nan
12146;BME280;6136;47.032;15.398;2022-11-20T04:47:04;97068.13;;;2.04;nan
12146;BME280;6136;47.032;15.398;2022-11-20T04:49:32;97052.63;;;1.99;nan
12146;BME280;6136;47.032;15.398;2022-11-20T04:52:01;97063.78;;;2.03;nan
12146;BME280;6136;47.032;15.398;2022-11-20T04:54:30;97064.84;;;1.99;nan
12146;BME280;6136;47.032;15.398;2022-11-20T04:56:58;97052.91;;;1.91;nan
12146;BME280;6136;47.032;15.398;2022-11-20T04:59:26;97063.84;;;2.01;nan
12146;BME280;6136;47.032;15.398;2022-11-20T05:01:54;97065.59;;;2.01;nan
12146;BME280;6136;47.032;15.398;2022-11-20T05:04:23;97063.22;;;1.94;nan
12146;BME280;6136;47.032;15.398;2022-11-20T05:06:51;97060.38;;;2.01;nan
12146;BME280;6136;47.032;15.398;2022-11-20T05:09:19;97050.28;;;1.91;nan
12146;BME280;6136;47.032;15.398;2022-11-20T05:11:49;97059.59;;;1.99;nan
12146;BME280;6136;47.032;15.398;2022-11-20T05:14:17;97049.38;;;1.92;nan
12146;BME280;6136;47.032;15.398;2022-11-20T05:16:46;97063.84;;;2.01;nan
12146;BME280;6136;47.032;15.398;2022-11-20T05:19:14;97054.59;;;1.92;nan
12146;BME280;6136;47.032;15.398;2022-11-20T05:21:42;97050.19;;;1.93;nan
12146;BME280;6136;47.032;15.398;2022-11-20T05:24:10;97062.13;;;2.00;nan
12146;BME280;6136;47.032;15.398;2022-11-20T05:26:39;97065.69;;;1.99;nan
12146;BME280;6136;47.032;15.398;2022-11-20T05:29:11;97059.59;;;1.99;nan
12146;BME280;6136;47.032;15.398;2022-11-20T05:31:40;97044.16;;;1.92;nan
12146;BME280;6136;47.032;15.398;2022-11-20T05:34:08;97052.78;;;1.94;nan
12146;BME280;6136;47.032;15.398;2022-11-20T05:36:36;97041.47;;;1.94;nan
12146;BME280;6136;47.032;15.398;2022-11-20T05:39:04;97063.78;;;2.03;nan
12146;BME280;6136;47.032;15.398;2022-11-20T05:41:33;97061.31;;;2.00;nan
12146;BME280;6136;47.032;15.398;2022-11-20T05:44:01;97055.34;;;1.96;nan
12146;BME280;6136;47.032;15.398;2022-11-20T05:46:31;97069.25;;;1.97;nan
12146;BME280;6136;47.032;15.398;2022-11-20T05:48:59;97075.28;;;1.99;nan
12146;BME280;6136;47.032;15.398;2022-11-20T05:51:28;97070.38;;;1.89;nan
12146;BME280;6136;47.032;15.398;2022-11-20T05:53:56;97087.44;;;2.00;nan
12146;BME280;6136;47.032;15.398;2022-11-20T05:56:25;97088.34;;;1.99;nan
12146;BME280;6136;47.032;15.398;2022-11-20T05:58:53;97084.97;;;1.95;nan
12146;BME280;6136;47.032;15.398;2022-11-20T06:01:23;97089.13;;;2.01;nan
12146;BME280;6136;47.032;15.398;2022-11-20T06:03:54;97085.66;;;2.00;nan
12146;BME280;6136;47.032;15.398;2022-11-20T06:06:22;97066.72;;;1.93;nan
12146;BME280;6136;47.032;15.398;2022-11-20T06:08:51;97083.03;;;2.00;nan
12146;BME280;6136;47.032;15.398;2022-11-20T06:11:20;97079.53;;;2.01;nan
12146;BME280;6136;47.032;15.398;2022-11-20T06:13:48;97088.97;;;2.05;nan
12146;BME280;6136;47.032;15.398;2022-11-20T06:16:18;97093.13;;;2.11;nan
12146;BME280;6136;47.032;15.398;2022-11-20T06:18:48;97094.81;;;2.12;nan
12146;BME280;6136;47.032;15.398;2022-11-20T06:21:19;97083.16;;;1.97;nan
12146;BME280;6136;47.032;15.398;2022-11-20T06:23:48;97102.75;;;2.09;nan
12146;BME280;6136;47.032;15.398;2022-11-20T06:26:19;97098.34;;;2.11;nan
12146;BME280;6136;47.032;15.398;2022-11-20T06:28:47;97085.78;;;1.97;nan
12146;BME280;6136;47.032;15.398;2022-11-20T06:31:18;97105.22;;;2.13;nan
12146;BME280;6136;47.032;15.398;2022-11-20T06:33:47;97108.53;;;2.18;nan
12146;BME280;6136;47.032;15.398;2022-11-20T06:36:19;97106.09;;;2.14;nan
12146;BME280;6136;47.032;15.398;2022-11-20T06:38:47;97096.41;;;2.16;nan
12146;BME280;6136;47.032;15.398;2022-11-20T06:41:18;97092.31;;;2.09;nan
12146;BME280;6136;47.032;15.398;2022-11-20T06:43:47;97114.50;;;2.22;nan
12146;BME280;6136;47.032;15.398;2022-11-20T06:46:16;97124.81;;;2.25;nan
12146;BME280;6136;47.032;15.398;2022-11-20T06:48:45;97127.44;;;2.25;nan
12146;BME280;6136;47.032;15.398;2022-11-20T06:51:14;97108.53;;;2.18;nan
12146;BME280;6136;47.032;15.398;2022-11-20T06:53:44;97129.97;;;2.28;nan
12146;BME280;6136;47.032;15.398;2022-11-20T06:56:12;97131.72;;;2.27;nan
12146;BME280;6136;47.032;15.398;2022-11-20T06:58:40;97112.66;;;2.24;nan
12146;BME280;6136;47.032;15.398;2022-11-20T07:01:10;97112.66;;;2.24;nan
12146;BME280;6136;47.032;15.398;2022-11-20T07:03:39;97122.69;;;2.36;nan
12146;BME280;6136;47.032;15.398;2022-11-20T07:06:07;97121.06;;;2.32;nan
12146;BME280;6136;47.032;15.398;2022-11-20T07:08:36;97120.19;;;2.33;nan
12146;BME280;6136;47.032;15.398;2022-11-20T07:11:07;97119.38;;;2.31;nan
12146;BME280;6136;47.032;15.398;2022-11-20T07:13:35;97142.56;;;2.40;nan
12146;BME280;6136;47.032;15.398;2022-11-20T07:16:06;97145.19;;;2.40;nan
12146;BME280;6136;47.032;15.398;2022-11-20T07:18:34;97145.09;;;2.43;nan
12146;BME280;6136;47.032;15.398;2022-11-20T07:21:05;97143.25;;;2.45;nan
12146;BME280;6136;47.032;15.398;2022-11-20T07:23:34;97143.16;;;2.48;nan
12146;BME280;6136;47.032;15.398;2022-11-20T07:26:03;97149.22;;;2.49;nan
12146;BME280;6136;47.032;15.398;2022-11-20T07:28:33;97151.59;;;2.55;nan
12146;BME280;6136;47.032;15.398;2022-11-20T07:31:01;97155.09;;;2.55;nan
12146;BME280;6136;47.032;15.398;2022-11-20T07:33:30;97156.56;;;2.62;nan
12146;BME280;6136;47.032;15.398;2022-11-20T07:35:58;97152.94;;;2.66;nan
12146;BME280;6136;47.032;15.398;2022-11-20T07:38:27;97149.28;;;2.70;nan
12146;BME280;6136;47.032;15.398;2022-11-20T07:40:55;97147.94;;;2.82;nan
12146;BME280;6136;47.032;15.398;2022-11-20T07:43:24;97148.47;;;2.92;nan
12146;BME280;6136;47.032;15.398;2022-11-20T07:45:56;97160.44;;;2.97;nan
12146;BME280;6136;47.032;15.398;2022-11-20T07:48:24;97133.56;;;2.94;nan
12146;BME280;6136;47.032;15.398;2022-11-20T07:50:53;97142.22;;;2.96;nan
12146;BME280;6136;47.032;15.398;2022-11-20T07:53:22;97130.63;;;3.01;nan
12146;BME280;6136;47.032;15.398;2022-11-20T07:55:50;97153.53;;;3.18;nan
12146;BME280;6136;47.032;15.398;2022-11-20T07:58:19;97149.22;;;3.17;nan
12146;BME280;6136;47.032;15.398;2022-11-20T08:00:47;97158.47;;;3.26;nan
12146;BME280;6136;47.032;15.398;2022-11-20T08:03:17;97170.41;;;3.33;nan
12146;BME280;6136;47.032;15.398;2022-11-20T08:05:50;97164.53;;;3.26;nan
12146;BME280;6136;47.032;15.398;2022-11-20T08:08:18;97159.53;;;3.20;nan
12146;BME280;6136;47.032;15.398;2022-11-20T08:10:46;97161.63;;;3.12;nan
12146;BME280;6136;47.032;15.398;2022-11-20T08:13:15;97161.41;;;3.18;nan
12146;BME280;6136;47.032;15.398;2022-11-20T08:16:01;97172.53;;;3.23;nan
12146;BME280;6136;47.032;15.398;2022-11-20T08:18:30;97178.44;;;3.28;nan
12146;BME280;6136;47.032;15.398;2022-11-20T08:21:02;97175.66;;;3.33;nan
12146;BME280;6136;47.032;15.398;2022-11-20T08:23:30;97178.31;;;3.31;nan
12146;BME280;6136;47.032;15.398;2022-11-20T08:25:58;97181.84;;;3.30;nan
12146;BME280;6136;47.032;15.398;2022-11-20T08:28:26;97177.72;;;3.25;nan
12146;BME280;6136;47.032;15.398;2022-11-20T08:30:58;97181.97;;;3.27;nan
12146;BME280;6136;47.032;15.398;2022-11-20T08:33:26;97186.22;;;3.30;nan
12146;BME280;6136;47.032;15.398;2022-11-20T08:35:59;97175.09;;;3.25;nan
12146;BME280;6136;47.032;15.398;2022-11-20T08:38:28;97185.94;;;3.37;nan
12146;BME280;6136;47.032;15.398;2022-11-20T08:40:57;97193.78;;;3.37;nan
12146;BME280;6136;47.032;15.398;2022-11-20T08:43:42;97198.91;;;3.40;nan
12146;BME280;6136;47.032;15.398;2022-11-20T08:46:11;97202.19;;;3.45;nan
12146;BME280;6136;47.032;15.398;2022-11-20T08:48:39;97206.47;;;3.48;nan
12146;BME280;6136;47.032;15.398;2022-11-20T08:51:09;97199.56;;;3.45;nan
12146;BME280;6136;47.032;15.398;2022-11-20T08:53:38;97190.13;;;3.41;nan
12146;BME280;6136;47.032;15.398;2022-11-20T08:56:06;97200.13;;;3.54;nan
12146;BME280;6136;47.032;15.398;2022-11-20T08:58:36;97204.38;;;3.56;nan
12146;BME280;6136;47.032;15.398;2022-11-20T09:01:25;97183.34;;;3.58;nan
12146;BME280;6136;47.032;15.398;2022-11-20T09:03:55;97201.97;;;3.72;nan
12146;BME280;6136;47.032;15.398;2022-11-20T09:06:25;97199.56;;;3.67;nan
12146;BME280;6136;47.032;15.398;2022-11-20T09:08:53;97206.31;;;3.73;nan
12146;BME280;6136;47.032;15.398;2022-11-20T09:11:21;97200.81;;;3.79;nan
12146;BME280;6136;47.032;15.398;2022-11-20T09:13:50;97195.72;;;3.76;nan
12146;BME280;6136;47.032;15.398;2022-11-20T09:16:18;97188.16;;;3.68;nan
12146;BME280;6136;47.032;15.398;2022-11-20T09:18:46;97198.72;;;3.87;nan
12146;BME280;6136;47.032;15.398;2022-11-20T09:21:24;97196.66;;;3.95;nan
12146;BME280;6136;47.032;15.398;2022-11-20T09:23:53;97198.47;;;3.93;nan
12146;BME280;6136;47.032;15.398;2022-11-20T09:26:21;97199.53;;;4.09;nan
12146;BME280;6136;47.032;15.398;2022-11-20T09:28:49;97190.91;;;4.07;nan
12146;BME280;6136;47.032;15.398;2022-11-20T09:31:23;97192.94;;;4.21;nan
12146;BME280;6136;47.032;15.398;2022-11-20T09:33:52;97193.84;;;4.20;nan
12146;BME280;6136;47.032;15.398;2022-11-20T09:36:20;97181.53;;;4.22;nan
12146;BME280;6136;47.032;15.398;2022-11-20T09:38:50;97186.84;;;4.20;nan
12146;BME280;6136;47.032;15.398;2022-11-20T09:41:33;97170.69;;;4.09;nan
12146;BME280;6136;47.032;15.398;2022-11-20T09:44:10;97173.47;;;4.06;nan
12146;BME280;6136;47.032;15.398;2022-11-20T09:46:50;97170.91;;;4.05;nan
12146;BME280;6136;47.032;15.398;2022-11-20T09:49:30;97175.44;;;4.21;nan
12146;BME280;6136;47.032;15.398;2022-11-20T09:52:16;97185.63;;;4.48;nan
12146;BME280;6136;47.032;15.398;2022-11-20T09:54:52;97182.31;;;4.63;nan
12146;BME280;6136;47.032;15.398;2022-11-20T09:57:25;97168.28;;;4.64;nan
12146;BME280;6136;47.032;15.398;2022-11-20T10:00:00;97178.59;;;4.87;nan
12146;BME280;6136;47.032;15.398;2022-11-20T10:02:42;97165.34;;;5.26;nan
12146;BME280;6136;47.032;15.398;2022-11-20T10:05:17;97166.06;;;5.66;nan
12146;BME280;6136;47.032;15.398;2022-11-20T10:07:50;97172.34;;;5.80;nan
12146;BME280;6136;47.032;15.398;2022-11-20T10:10:30;97172.53;;;5.95;nan
12146;BME280;6136;47.032;15.398;2022-11-20T10:13:17;97172.00;;;6.22;nan
12146;BME280;6136;47.032;15.398;2022-11-20T10:15:57;97164.75;;;6.60;nan
12146;BME280;6136;47.032;15.398;2022-11-20T10:18:48;97158.53;;;6.61;nan
12146;BME280;6136;47.032;15.398;2022-11-20T10:21:25;97160.00;;;6.67;nan
12146;BME280;6136;47.032;15.398;2022-11-20T10:24:18;97163.06;;;6.75;nan
12146;BME280;6136;47.032;15.398;2022-11-20T10:27:00;97156.97;;;6.90;nan
12146;BME280;6136;47.032;15.398;2022-11-20T10:29:36;97147.25;;;7.08;nan
12146;BME280;6136;47.032;15.398;2022-11-20T10:32:14;97129.66;;;7.09;nan
12146;BME280;6136;47.032;15.398;2022-11-20T10:34:48;97146.47;;;7.22;nan
12146;BME280;6136;47.032;15.398;2022-11-20T10:37:22;97135.94;;;7.22;nan
12146;BME280;6136;47.032;15.398;2022-11-20T10:39:55;97134.84;;;7.10;nan
12146;BME280;6136;47.032;15.398;2022-11-20T10:42:30;97143.13;;;7.50;nan
12146;BME280;6136;47.032;15.398;2022-11-20T10:45:11;97139.41;;;7.54;nan
12146;BME280;6136;47.032;15.398;2022-11-20T10:47:44;97120.63;;;7.44;nan
12146;BME280;6136;47.032;15.398;2022-11-20T10:50:16;97140.94;;;7.26;nan
12146;BME280;6136;47.032;15.398;2022-11-20T10:52:54;97139.56;;;7.19;nan
12146;BME280;6136;47.032;15.398;2022-11-20T10:55:31;97124.63;;;7.04;nan
12146;BME280;6136;47.032;15.398;2022-11-20T10:58:10;97126.94;;;7.10;nan
12146;BME280;6136;47.032;15.398;2022-11-20T11:00:38;97135.22;;;7.50;nan
12146;BME280;6136;47.032;15.398;2022-11-20T11:03:20;97140.75;;;7.61;nan
12146;BME280;6136;47.032;15.398;2022-11-20T11:05:54;97125.03;;;7.89;nan
12146;BME280;6136;47.032;15.398;2022-11-20T11:08:26;97121.75;;;8.30;nan
12146;BME280;6136;47.032;15.398;2022-11-20T11:10:57;97134.13;;;7.99;nan
12146;BME280;6136;47.032;15.398;2022-11-20T11:13:30;97133.31;;;7.83;nan
12146;BME280;6136;47.032;15.398;2022-11-20T11:15:58;97143.75;;;8.14;nan
12146;BME280;6136;47.032;15.398;2022-11-20T11:18:27;97140.63;;;9.09;nan
12146;BME280;6136;47.032;15.398;2022-11-20T11:20:57;97135.75;;;9.29;nan
12146;BME280;6136;47.032;15.398;2022-11-20T11:23:31;97127.81;;;8.88;nan
12146;BME280;6136;47.032;15.398;2022-11-20T11:26:02;97130.44;;;8.60;nan
12146;BME280;6136;47.032;15.398;2022-11-20T11:28:32;97128.94;;;8.56;nan
12146;BME280;6136;47.032;15.398;2022-11-20T11:31:01;97132.13;;;8.89;nan
12146;BME280;6136;47.032;15.398;2022-11-20T11:33:30;97120.28;;;9.23;nan
12146;BME280;6136;47.032;15.398;2022-11-20T11:36:01;97119.88;;;9.03;nan
12146;BME280;6136;47.032;15.398;2022-11-20T11:38:35;97121.00;;;8.84;nan
12146;BME280;6136;47.032;15.398;2022-11-20T11:41:05;97123.31;;;9.85;nan
12146;BME280;6136;47.032;15.398;2022-11-20T11:43:37;97122.75;;;10.32;nan
12146;BME280;6136;47.032;15.398;2022-11-20T11:46:27;97114.09;;;10.81;nan
12146;BME280;6136;47.032;15.398;2022-11-20T11:48:58;97113.03;;;10.33;nan
12146;BME280;6136;47.032;15.398;2022-11-20T11:51:31;97108.06;;;10.41;nan
12146;BME280;6136;47.032;15.398;2022-11-20T11:54:04;97113.25;;;10.42;nan
12146;BME280;6136;47.032;15.398;2022-11-20T11:56:33;97100.69;;;10.82;nan
12146;BME280;6136;47.032;15.398;2022-11-20T11:59:06;97094.53;;;10.82;nan
12146;BME280;6136;47.032;15.398;2022-11-20T12:01:44;97104.97;;;10.60;nan
12146;BME280;6136;47.032;15.398;2022-11-20T12:04:20;97096.78;;;10.88;nan
12146;BME280;6136;47.032;15.398;2022-11-20T12:06:58;97101.97;;;11.39;nan
12146;BME280;6136;47.032;15.398;2022-11-20T12:09:48;97100.25;;;11.01;nan
12146;BME280;6136;47.032;15.398;2022-11-20T12:12:24;97106.22;;;10.92;nan
12146;BME280;6136;47.032;15.398;2022-11-20T12:14:55;97112.63;;;10.52;nan
12146;BME280;6136;47.032;15.398;2022-11-20T12:17:25;97101.06;;;10.27;nan
12146;BME280;6136;47.032;15.398;2022-11-20T12:19:53;97105.63;;;10.50;nan
12146;BME280;6136;47.032;15.398;2022-11-20T12:22:29;97099.00;;;10.94;nan
12146;BME280;6136;47.032;15.398;2022-11-20T12:25:03;97095.44;;;11.43;nan
12146;BME280;6136;47.032;15.398;2022-11-20T12:27:44;97087.25;;;11.22;nan
12146;BME280;6136;47.032;15.398;2022-11-20T12:30:19;97090.25;;;11.17;nan
12146;BME280;6136;47.032;15.398;2022-11-20T12:33:08;97091.50;;;11.12;nan
12146;BME280;6136;47.032;15.398;2022-11-20T12:35:58;97097.41;;;11.41;nan
12146;BME280;6136;47.032;15.398;2022-11-20T12:39:05;97087.66;;;11.28;nan
12146;BME280;6136;47.032;15.398;2022-11-20T12:41:51;97092.41;;;11.36;nan
12146;BME280;6136;47.032;15.398;2022-11-20T12:45:06;97089.44;;;11.41;nan
12146;BME280;6136;47.032;15.398;2022-11-20T12:47:50;97085.09;;;11.40;nan
12146;BME280;6136;47.032;15.398;2022-11-20T12:50:30;97080.22;;;11.34;nan
12146;BME280;6136;47.032;15.398;2022-11-20T12:53:14;97076.75;;;11.20;nan
12146;BME280;6136;47.032;15.398;2022-11-20T12:55:53;97077.50;;;11.22;nan
12146;BME280;6136;47.032;15.398;2022-11-20T12:58:30;97086.31;;;10.74;nan
12146;BME280;6136;47.032;15.398;2022-11-20T13:01:20;97077.59;;;10.84;nan
12146;BME280;6136;47.032;15.398;2022-11-20T13:04:30;97079.25;;;10.98;nan
12146;BME280;6136;47.032;15.398;2022-11-20T13:07:05;97080.72;;;11.39;nan
12146;BME280;6136;47.032;15.398;2022-11-20T13:09:42;97078.19;;;11.61;nan
12146;BME280;6136;47.032;15.398;2022-11-20T13:12:17;97057.75;;;11.74;nan
12146;BME280;6136;47.032;15.398;2022-11-20T13:14:55;97071.47;;;11.92;nan
12146;BME280;6136;47.032;15.398;2022-11-20T13:17:31;97065.59;;;12.11;nan
12146;BME280;6136;47.032;15.398;2022-11-20T13:20:06;97066.09;;;11.57;nan
12146;BME280;6136;47.032;15.398;2022-11-20T13:22:45;97070.53;;;11.93;nan
12146;BME280;6136;47.032;15.398;2022-11-20T13:25:26;97070.50;;;11.69;nan
12146;BME280;6136;47.032;15.398;2022-11-20T13:27:57;97073.91;;;11.47;nan
12146;BME280;6136;47.032;15.398;2022-11-20T13:30:28;97072.94;;;10.88;nan
12146;BME280;6136;47.032;15.398;2022-11-20T13:33:00;97073.72;;;10.52;nan
12146;BME280;6136;47.032;15.398;2022-11-20T13:35:40;97072.97;;;10.50;nan
12146;BME280;6136;47.032;15.398;2022-11-20T13:38:10;97067.88;;;10.60;nan
12146;BME280;6136;47.032;15.398;2022-11-20T13:40:51;97061.94;;;10.69;nan
12146;BME280;6136;47.032;15.398;2022-11-20T13:43:33;97060.81;;;11.33;nan
12146;BME280;6136;47.032;15.398;2022-11-20T13:46:05;97060.84;;;11.20;nan
12146;BME280;6136;47.032;15.398;2022-11-20T13:48:38;97063.72;;;10.81;nan
12146;BME280;6136;47.032;15.398;2022-11-20T13:51:27;97062.81;;;10.57;nan
12146;BME280;6136;47.032;15.398;2022-11-20T13:54:14;97062.38;;;10.63;nan
12146;BME280;6136;47.032;15.398;2022-11-20T13:56:58;97077.66;;;10.34;nan
12146;BME280;6136;47.032;15.398;2022-11-20T13:59:45;97070.00;;;10.55;nan